Maple Lake, MN (55358)

5:54 PM CST on November 22, 2014 (GMT -0600)
Albion Township | Change Station
CLOSE
Current Station
Personal Weather Station
Location: Maple Lake, MN
Elevation: 1060 ft
Nearby Weather Stations

Elev 1060 ft 45.20 °N, 94.02 °W | Updated 6 minutes ago

Overcast
Overcast
32.8 °F
Feels Like 25 °F
N
9.0
Wind Variable Wind from ESE
Gusts 14.0 mph

Today
High -- | Low -- °F
--% Chance of Precip.
Yesterday
High -- | Low -- °F
Precip. -- in
7:23 AM 4:40 PM
New Moon, 0% visible
Pressure 29.58 in
Visibility 1.2 miles
Clouds Overcast 200 ft
Windchill 25 °F
Dew Point 32 °F
Humidity 98%
Rainfall 0.00 in
Snow Depth Not available.
UV 0 out of 12
Pollen .10 out of 12
Air Quality Not available.
Flu Activity Not available.
METAR KMGG 222335Z AUTO 13009KT 1 1/4SM BR OVC002 02/01 A2958 RMK AO2 T00150013

More Conditions Fewer Conditions

Pressure 29.58 in
Visibility 1.2 miles
Clouds Overcast 200 ft
Windchill 25 °F
Dew Point 32 °F
Humidity 98%
Rainfall 0.00 in
Snow Depth Not available.
UV 0 out of 12
Pollen .10 out of 12
Air Quality Not available.
Flu Activity Not available.
METAR KMGG 222335Z AUTO 13009KT 1 1/4SM BR OVC002 02/01 A2958 RMK AO2 T00150013

More Conditions Fewer Conditions

10-Day Weather Forecast

Almanac

Astronomy

Nov. 22, 2014 Rise Set
Actual Time
Civil Twilight
Nautical Twilight
Astronomical Twilight
Moon
Length of Visible Light
Length of Day
Tomorrow will be .
, % of the Moon is Illuminated

Today's Extremes

State Highs State Lows

Community

WunderPhotos

Upload Photos

1,772,928 photos uploaded!

WunderBlogs® & News

Nearby

Air Quality

  Air Quality AQ Index Pollutant
Not available.

Snow Depth

Station Depth Elevation

Earthquake Activity

City Distance Mag. Time & Date
Minimum magnitude displayed is 2.5.

Coastal Water Temperatures

Place Temperature

Nearby Weather Stations